Time;durP1;ratioP1;P1;durP2;ratioP2;P2;SDS_P1;SDS_P2;PMS_P1;PMS_P2;Temp;Humidity;BMP_temperature;BMP_pressure;BME280_temperature;BME280_humidity;BME280_pressure;Samples;Min_cycle;Max_cycle;Signal;HPM_P1;HPM_P2
2023/12/13 00:09:24;;;;;;;1.23;0.50;;;;;;;;;;20646165;28;20228;-85
2023/12/13 00:19:25;;;;;;;1.20;0.83;;;;;;;;;;20656805;28;20779;-86
2023/12/13 00:29:27;;;;;;;1.50;0.60;;;;;;;;;;20681463;28;20212;-84
2023/12/13 00:39:29;;;;;;;2.43;0.67;;;;;;;;;;20722223;28;20322;-84
2023/12/13 00:49:33;;;;;;;0.93;0.40;;;;;;;;;;20661896;28;20227;-86
2023/12/13 00:59:36;;;;;;;0.33;0.33;;;;;;;;;;20684824;28;20265;-84
2023/12/13 01:09:41;;;;;;;0.40;0.30;;;;;;;;;;20675086;28;20231;-83
2023/12/13 01:19:42;;;;;;;4.03;0.43;;;;;;;;;;20679559;28;20633;-85
2023/12/13 01:29:44;;;;;;;1.33;0.60;;;;;;;;;;20664639;28;20228;-85
2023/12/13 01:39:46;;;;;;;1.17;0.60;;;;;;;;;;20685276;28;20239;-85
2023/12/13 01:49:48;;;;;;;1.93;0.63;;;;;;;;;;20673040;28;20220;-86
2023/12/13 01:59:50;;;;;;;1.90;0.40;;;;;;;;;;20674685;28;20308;-83
2023/12/13 02:09:52;;;;;;;0.20;0.20;;;;;;;;;;20651861;28;20270;-82
2023/12/13 02:19:53;;;;;;;1.23;0.30;;;;;;;;;;20648622;28;20232;-84
2023/12/13 02:29:55;;;;;;;0.20;0.20;;;;;;;;;;20653637;28;20255;-84
2023/12/13 02:39:58;;;;;;;0.20;0.20;;;;;;;;;;20653722;28;20274;-84
2023/12/13 02:50:00;;;;;;;0.57;0.27;;;;;;;;;;20649360;28;20220;-84
2023/12/13 03:00:03;;;;;;;0.53;0.40;;;;;;;;;;20649521;28;20227;-83
2023/12/13 03:10:05;;;;;;;0.73;0.33;;;;;;;;;;20657169;28;20220;-84
2023/12/13 03:20:08;;;;;;;0.50;0.20;;;;;;;;;;20676949;28;20227;-85
2023/12/13 03:30:10;;;;;;;1.13;0.30;;;;;;;;;;20637275;28;20247;-84
2023/12/13 03:40:12;;;;;;;1.67;0.50;;;;;;;;;;20653243;28;20232;-83
2023/12/13 03:50:14;;;;;;;1.03;0.40;;;;;;;;;;20733408;28;20351;-83
2023/12/13 04:00:16;;;;;;;1.70;0.40;;;;;;;;;;20684432;28;20251;-85
2023/12/13 04:10:19;;;;;;;1.47;0.70;;;;;;;;;;20657624;28;20274;-84
2023/12/13 04:20:20;;;;;;;2.43;0.70;;;;;;;;;;20626106;28;20216;-81
2023/12/13 04:30:22;;;;;;;3.50;1.33;;;;;;;;;;20662644;28;20268;-80
2023/12/13 04:40:24;;;;;;;0.73;0.30;;;;;;;;;;20662698;28;20228;-81
2023/12/13 04:50:25;;;;;;;1.50;0.30;;;;;;;;;;20664993;28;20224;-79
2023/12/13 05:00:27;;;;;;;0.47;0.40;;;;;;;;;;20679104;28;20242;-81
2023/12/13 05:10:29;;;;;;;0.33;0.33;;;;;;;;;;20636305;28;20767;-81
2023/12/13 05:20:30;;;;;;;1.07;0.70;;;8.00;99.90;;;;;;20637435;28;20236;-79
2023/12/13 05:30:33;;;;;;;0.33;0.20;;;;;;;;;;20656003;28;20643;-81
2023/12/13 05:40:34;;;;;;;0.20;0.20;;;;;;;;;;20682904;28;20293;-82
2023/12/13 05:50:36;;;;;;;1.23;0.30;;;;;;;;;;20653120;28;20216;-81
2023/12/13 06:00:37;;;;;;;0.40;0.30;;;;;;;;;;20677569;28;20216;-82
2023/12/13 06:10:40;;;;;;;0.50;0.40;;;;;;;;;;20649767;28;20279;-81
2023/12/13 06:20:41;;;;;;;0.90;0.40;;;;;;;;;;20638360;28;20224;-82
2023/12/13 06:30:43;;;;;;;0.20;0.20;;;;;;;;;;20674209;28;20262;-82
2023/12/13 06:40:45;;;;;;;0.93;0.30;;;;;;;;;;20625015;28;20266;-80
2023/12/13 06:50:48;;;;;;;1.20;0.37;;;;;;;;;;20658368;28;20240;-80
2023/12/13 07:00:49;;;;;;;2.47;0.80;;;;;;;;;;20660765;28;20270;-80
2023/12/13 07:10:51;;;;;;;0.50;0.30;;;;;;;;;;20671699;28;20212;-80
2023/12/13 07:20:53;;;;;;;0.83;0.63;;;;;;;;;;20680114;28;20271;-80
2023/12/13 07:30:55;;;;;;;1.37;0.87;;;;;;;;;;20656894;28;20759;-81
2023/12/13 07:40:57;;;;;;;2.03;0.80;;;;;;;;;;20652939;28;20231;-80
2023/12/13 07:50:59;;;;;;;1.03;0.37;;;;;;;;;;20647482;28;20239;-81
2023/12/13 08:01:02;;;;;;;0.30;0.30;;;;;;;;;;20664431;28;20291;-81
2023/12/13 08:11:04;;;;;;;0.40;0.33;;;;;;;;;;20650000;28;20212;-80
2023/12/13 08:21:06;;;;;;;0.90;0.47;;;;;;;;;;20661947;28;20231;-80
2023/12/13 08:31:08;;;;;;;1.20;0.50;;;;;;;;;;20670861;28;20318;-81
2023/12/13 08:41:12;;;;;;;0.47;0.33;;;;;;;;;;20680696;28;20618;-80
2023/12/13 08:51:13;;;;;;;0.20;0.17;;;;;;;;;;20669581;28;20220;-80
2023/12/13 09:01:15;;;;;;;0.73;0.40;;;;;;;;;;20688646;28;20751;-80
2023/12/13 09:11:18;;;;;;;0.90;0.47;;;;;;;;;;20676521;28;20219;-80
2023/12/13 09:21:22;;;;;;;1.73;0.70;;;;;;;;;;20698910;28;20385;-81
2023/12/13 09:31:24;;;;;;;0.30;0.30;;;;;;;;;;20657749;28;20208;-80
2023/12/13 09:41:31;;;;;;;0.40;0.30;;;8.80;99.90;;;;;;20649589;28;20743;-81
2023/12/13 09:51:33;;;;;;;0.67;0.40;;;;;;;;;;20626028;28;20219;-81
2023/12/13 10:01:35;;;;;;;0.57;0.30;;;;;;;;;;20662558;28;20220;-81
2023/12/13 10:11:36;;;;;;;1.03;0.40;;;;;;;;;;20640181;28;20215;-81
2023/12/13 10:21:39;;;;;;;0.43;0.30;;;;;;;;;;20649216;28;20302;-80
2023/12/13 10:31:40;;;;;;;1.27;0.30;;;;;;;;;;20665762;28;20224;-80
2023/12/13 10:41:44;;;;;;;1.53;0.33;;;10.10;99.90;;;;;;20681939;28;20286;-80
2023/12/13 10:51:47;;;;;;;1.13;0.40;;;10.00;99.90;;;;;;20618185;28;20350;-80
2023/12/13 11:01:50;;;;;;;1.97;0.60;;;;;;;;;;20659062;28;20294;-80
2023/12/13 11:11:53;;;;;;;2.20;0.63;;;;;;;;;;20656231;28;20211;-80
2023/12/13 11:21:56;;;;;;;0.80;0.40;;;;;;;;;;20659853;28;20286;-79
2023/12/13 11:31:59;;;;;;;1.20;0.30;;;;;;;;;;20660681;28;20232;-80
2023/12/13 11:42:07;;;;;;;0.90;0.50;;;;;;;;;;20636021;28;20603;-80
2023/12/13 11:52:10;;;;;;;0.93;0.40;;;10.40;99.90;;;;;;20646414;28;20739;-79
2023/12/13 12:02:12;;;;;;;0.50;0.33;;;;;;;;;;20658454;28;20561;-80
2023/12/13 12:12:15;;;;;;;0.97;0.40;;;;;;;;;;20665085;28;20212;-81
2023/12/13 12:22:19;;;;;;;1.20;0.43;;;9.70;99.90;;;;;;20650217;28;20224;-80
2023/12/13 12:32:20;;;;;;;3.30;0.50;;;;;;;;;;20646395;28;20686;-80
2023/12/13 12:42:22;;;;;;;3.47;0.60;;;;;;;;;;20672143;28;20228;-81
2023/12/13 12:52:24;;;;;;;0.33;0.30;;;;;;;;;;20652062;28;20219;-80
2023/12/13 13:02:27;;;;;;;0.77;0.53;;;;;;;;;;20655537;28;20254;-80
2023/12/13 13:12:30;;;;;;;0.73;0.30;;;;;;;;;;20643043;28;20212;-80
2023/12/13 13:22:32;;;;;;;0.80;0.40;;;;;;;;;;20663652;28;20270;-81
2023/12/13 13:32:34;;;;;;;1.03;0.67;;;;;;;;;;20658277;28;20627;-80
2023/12/13 13:42:36;;;;;;;1.80;0.50;;;;;;;;;;20664819;28;20240;-81
2023/12/13 13:52:39;;;;;;;0.77;0.30;;;9.40;99.90;;;;;;20685084;28;20208;-80
2023/12/13 14:02:44;;;;;;;0.90;0.63;;;;;;;;;;20659467;28;20772;-86
2023/12/13 14:12:46;;;;;;;0.73;0.30;;;;;;;;;;20624328;28;20265;-86
2023/12/13 14:22:48;;;;;;;1.07;0.47;;;;;;;;;;20663123;28;20755;-86
2023/12/13 14:32:53;;;;;;;0.30;0.30;;;;;;;;;;20696327;28;20192;-87
2023/12/13 14:42:54;;;;;;;0.90;0.40;;;;;;;;;;20639688;28;20327;-87
2023/12/13 15:04:39;;;;;;;6.43;0.60;;;;;;;;;;20678976;28;20270;-87
2023/12/13 15:14:41;;;;;;;3.77;1.07;;;;;;;;;;20635081;28;20220;-83
2023/12/13 15:24:43;;;;;;;1.27;0.40;;;;;;;;;;20635752;28;20294;-85
2023/12/13 15:34:45;;;;;;;0.80;0.50;;;;;;;;;;20646547;28;20266;-85
2023/12/13 15:44:46;;;;;;;0.60;0.40;;;;;;;;;;20661394;28;20231;-84
2023/12/13 15:54:48;;;;;;;0.40;0.30;;;;;;;;;;20658440;28;20235;-85
2023/12/13 16:04:50;;;;;;;0.70;0.43;;;;;;;;;;20641412;28;20228;-83
2023/12/13 16:14:52;;;;;;;0.20;0.20;;;;;;;;;;20640035;28;20212;-83
2023/12/13 16:24:54;;;;;;;0.93;0.40;;;;;;;;;;20636946;28;20298;-82
2023/12/13 16:34:56;;;;;;;1.13;0.47;;;;;;;;;;20693001;28;20196;-83
2023/12/13 16:44:58;;;;;;;0.83;0.43;;;;;;;;;;20664637;28;20274;-81
2023/12/13 16:55:00;;;;;;;1.10;0.50;;;;;;;;;;20663676;28;20262;-84
2023/12/13 17:05:02;;;;;;;3.10;0.77;;;;;;;;;;20649593;28;20250;-82
2023/12/13 17:15:04;;;;;;;1.50;0.90;;;;;;;;;;20664541;28;20279;-84
2023/12/13 17:25:08;;;;;;;1.90;0.90;;;;;;;;;;20668803;28;20630;-84
2023/12/13 17:35:10;;;;;;;1.20;0.90;;;;;;;;;;20657554;28;20622;-84
2023/12/13 17:45:12;;;;;;;7.50;3.50;;;;;;;;;;20681683;28;20227;-85
2023/12/13 17:55:13;;;;;;;3.40;2.10;;;;;;;;;;20651435;28;20708;-84
2023/12/13 18:05:15;;;;;;;1.97;1.07;;;;;;;;;;20653931;28;20219;-82
2023/12/13 18:15:17;;;;;;;2.13;0.80;;;;;;;;;;20663057;28;20240;-85
2023/12/13 18:25:22;;;;;;;1.03;0.83;;;;;;;;;;20657571;28;20259;-82
2023/12/13 18:35:27;;;;;;;3.07;2.00;;;;;;;;;;20648325;28;20224;-85
2023/12/13 18:45:29;;;;;;;6.53;2.23;;;;;;;;;;20672794;28;20281;-83
2023/12/13 18:55:31;;;;;;;2.27;1.30;;;;;;;;;;20647851;28;20255;-83
2023/12/13 19:05:32;;;;;;;1.77;1.10;;;;;;;;;;20618975;28;20632;-85
2023/12/13 19:15:34;;;;;;;2.10;1.10;;;;;;;;;;20641844;28;20215;-83
2023/12/13 19:25:36;;;;;;;1.57;0.83;;;;;;;;;;20606729;28;20227;-85
2023/12/13 19:35:39;;;;;;;1.83;1.03;;;;;;;;;;20636619;28;20228;-84
2023/12/13 19:45:41;;;;;;;3.27;0.80;;;;;;;;;;20642072;28;20219;-84
2023/12/13 19:55:46;;;;;;;2.13;1.00;;;;;;;;;;20625597;28;20759;-83
2023/12/13 20:05:48;;;;;;;1.63;0.77;;;;;;;;;;20634580;28;20228;-83
2023/12/13 20:15:50;;;;;;;1.40;0.93;;;;;;;;;;20633751;28;20208;-87
2023/12/13 20:25:51;;;;;;;3.77;1.20;;;;;;;;;;20652419;28;20248;-85
2023/12/13 20:35:53;;;;;;;2.27;1.57;;;;;;;;;;20657091;28;20212;-85
2023/12/13 20:45:56;;;;;;;2.03;1.43;;;;;;;;;;20669207;28;20251;-83
2023/12/13 20:55:58;;;;;;;6.13;3.23;;;;;;;;;;20647042;28;20212;-86
2023/12/13 21:05:59;;;;;;;3.50;2.00;;;;;;;;;;20641839;28;20223;-85
2023/12/13 21:16:01;;;;;;;1.40;0.93;;;;;;;;;;20681510;28;20339;-84
2023/12/13 21:26:03;;;;;;;2.40;1.63;;;;;;;;;;20690493;28;20232;-85
2023/12/13 21:36:05;;;;;;;3.83;2.33;;;;;;;;;;20704796;28;20208;-85
2023/12/13 21:46:07;;;;;;;2.97;1.70;;;;;;;;;;20685105;28;20222;-84
2023/12/13 21:56:09;;;;;;;4.17;2.40;;;;;;;;;;20676276;28;20200;-85
2023/12/13 22:06:11;;;;;;;6.20;3.67;;;;;;;;;;20652312;28;20216;-86
2023/12/13 22:16:16;;;;;;;2.80;1.90;;;;;;;;;;20658945;28;20668;-87
2023/12/13 22:26:19;;;;;;;1.80;1.00;;;;;;;;;;20632300;28;20220;-84
2023/12/13 22:36:20;;;;;;;2.23;1.20;;;;;;;;;;20664645;28;20559;-86
2023/12/13 22:46:22;;;;;;;1.50;1.00;;;;;;;;;;20663211;28;20224;-85
2023/12/13 22:56:24;;;;;;;1.40;1.07;;;;;;;;;;20636346;28;20268;-85
2023/12/13 23:06:26;;;;;;;2.20;1.20;;;;;;;;;;20667181;28;20253;-93
2023/12/13 23:16:28;;;;;;;2.70;1.40;;;;;;;;;;20657281;28;20614;-85
2023/12/13 23:26:29;;;;;;;2.00;1.17;;;;;;;;;;20626152;28;20219;-84
2023/12/13 23:36:33;;;;;;;12.27;6.17;;;;;;;;;;20634931;28;20282;-85
2023/12/13 23:46:35;;;;;;;1.67;0.93;;;;;;;;;;20663937;28;20231;-85
2023/12/13 23:56:37;;;;;;;4.37;1.67;;;;;;;;;;20655052;28;20555;-85
